ADDS METAR Data INFO
IDs: Format: Raw Decoded Include TAF

Data at: 0402 UTC 23 Sep 2017

KDRT 221953Z AUTO 17013G19KT 10SM FEW050 34/21 A2983 RMK AO2 SLP085 T03390206
KDRT 221853Z AUTO 14016G20KT 10SM SCT036 SCT045 BKN060 32/22 A2987 RMK AO2 SLP097 T03220217
KDRT 221753Z AUTO 15012KT 10SM FEW027 OVC049 30/22 A2990 RMK AO2 SLP106 T03000222 10300 20256 58005
KDRT 221653Z AUTO 13013KT 10SM FEW020 OVC041 27/22 A2991 RMK AO2 SLP112 T02720222
KDRT 221553Z AUTO 13012KT 9SM FEW019 OVC037 27/23 A2992 RMK AO2 SLP114 T02720228
KDRT 221507Z AUTO 13009KT 10SM FEW019 OVC033 26/23 A2992 RMK AO2 T02610228
KDRT 221453Z AUTO 12012KT 10SM SCT017 BKN026 OVC033 26/22 A2991 RMK AO2 SLP111 T02610222 53012
KDRT 221353Z AUTO 12011G17KT 10SM SCT017 OVC024 26/22 A2990 RMK AO2 SLP106 T02560222
KDRT 221253Z AUTO 11011G19KT 10SM SCT014 SCT019 OVC027 26/23 A2989 RMK AO2 SLP103 T02560228
KDRT 221153Z AUTO 11011KT 10SM BKN016 BKN021 OVC032 26/23 A2988 RMK AO2 SLP099 T02560228 10267 20250 53002
KDRT 221117Z AUTO 11011KT 10SM BKN016 BKN025 OVC033 26/23 A2987 RMK AO2 T02560228
KDRT 221107Z AUTO 11008KT 10SM SCT018 SCT025 OVC033 26/23 A2987 RMK AO2 T02560228
KDRT 221100Z AUTO 12008KT 10SM BKN024 OVC035 26/23 A2987 RMK AO2 T02560228
KDRT 221053Z AUTO 10008G17KT 10SM FEW017 SCT024 OVC035 26/23 A2987 RMK AO2 SLP097 T02560228
KDRT 221046Z AUTO 10008G17KT 10SM FEW018 SCT026 OVC035 26/23 A2987 RMK AO2 T02560228
KDRT 221031Z AUTO 11011KT 10SM FEW018 BKN026 OVC035 26/23 A2987 RMK AO2 T02560228
KDRT 220953Z AUTO 11010KT 10SM FEW025 OVC032 26/23 A2987 RMK AO2 SLP095 T02560228
KDRT 220922Z AUTO 10009KT 10SM FEW017 OVC029 26/23 A2986 RMK AO2 T02560228
KDRT 220853Z AUTO 11008KT 10SM BKN030 25/22 A2987 RMK AO2 SLP097 T02500222 50003
KDRT 220753Z AUTO 10009KT 10SM CLR 25/22 A2988 RMK AO2 SLP099 T02500217
KDRT 220653Z AUTO 11008KT 10SM CLR 26/21 A2987 RMK AO2 SLP098 T02560206
KDRT 220553Z AUTO 12008KT 10SM CLR 27/21 A2986 RMK AO2 SLP095 T02670206 10339 20267 403500250 51009
KDRT 220453Z AUTO 11014KT 10SM CLR 27/20 A2986 RMK AO2 SLP094 T02720200 TSNO
KDRT 220353Z AUTO 12012G19KT 10SM CLR 28/19 A2985 RMK AO2 PK WND 11031/0313 SLP092 T02830194
KDRT 220253Z AUTO 12007KT 10SM CLR 31/21 A2983 RMK AO2 SLP084 T03110206 53014
KDRT 220153Z AUTO 11007KT 10SM CLR 32/21 A2982 RMK AO2 SLP079 T03220206
KDRT 220053Z AUTO 13009KT 10SM CLR 33/21 A2980 RMK AO2 SLP074 T03280206
KDRT 212353Z AUTO 14011KT 10SM CLR 34/21 A2979 RMK AO2 SLP070 T03390211 10350 20289 55008
KDRT 212253Z AUTO 14008KT 10SM CLR 33/21 A2979 RMK AO2 SLP069 T03330211
KDRT 212153Z AUTO 13012KT 10SM CLR 34/22 A2979 RMK AO2 SLP070 T03440217
KDRT 212053Z AUTO 15016G21KT 110V180 10SM FEW048 34/22 A2982 RMK AO2 SLP078 T03440217 58033
KDRT 211953Z AUTO 10011G16KT 10SM SCT039 32/22 A2985 RMK AO2 SLP091 T03220222
KDRT 211853Z AUTO 15011KT 10SM BKN036 32/23 A2989 RMK AO2 SLP103 T03170228
KDRT 211820Z AUTO 14009G17KT 10SM OVC030 29/23 A2991 RMK AO2 T02940228
KDRT 211753Z AUTO 14011KT 10SM OVC029 29/23 A2992 RMK AO2 SLP112 T02890228 10294 20250 58001
KDRT 211653Z AUTO 11009KT 10SM OVC024 28/23 A2992 RMK AO2 SLP115 T02830228